createdAt,value
2017-11-29T00:00:04.715Z,936.09
2017-11-29T00:00:32.905Z,936.14
2017-11-29T00:01:01.120Z,936.15
2017-11-29T00:01:29.132Z,936.16
2017-11-29T00:01:57.224Z,936.18
2017-11-29T00:02:25.545Z,936.2
2017-11-29T00:02:53.747Z,936.18
2017-11-29T00:03:22.046Z,936.21
2017-11-29T00:03:50.197Z,936.2
2017-11-29T00:04:18.350Z,936.21
2017-11-29T00:04:46.444Z,936.18
2017-11-29T00:05:14.366Z,936.16
2017-11-29T00:05:42.608Z,936.19
2017-11-29T00:06:10.559Z,936.2
2017-11-29T00:06:38.620Z,936.21
2017-11-29T00:07:07.141Z,936.19
2017-11-29T00:07:35.307Z,936.15
2017-11-29T00:08:03.474Z,936.17
2017-11-29T00:08:31.547Z,936.11
2017-11-29T00:08:59.667Z,936.15
2017-11-29T00:09:27.816Z,936.19
2017-11-29T00:09:55.829Z,936.17
2017-11-29T00:10:24.279Z,936.17
2017-11-29T00:10:52.458Z,936.15
2017-11-29T00:11:20.674Z,936.09
2017-11-29T00:11:48.830Z,936.17
2017-11-29T00:12:16.885Z,936.17
2017-11-29T00:12:44.942Z,936.13
2017-11-29T00:13:13.177Z,936.14
2017-11-29T00:13:41.321Z,936.17
2017-11-29T00:14:09.269Z,936.19
2017-11-29T00:14:37.428Z,936.09
2017-11-29T00:15:05.283Z,936.17
2017-11-29T00:15:33.517Z,936.13
2017-11-29T00:16:01.978Z,936.16
2017-11-29T00:16:30.043Z,936.19
2017-11-29T00:16:58.153Z,936.15
2017-11-29T00:17:26.310Z,936.12
2017-11-29T00:17:54.504Z,936.13
2017-11-29T00:18:22.691Z,936.14
2017-11-29T00:18:50.945Z,936.15
2017-11-29T00:19:18.888Z,936.19
2017-11-29T00:19:46.973Z,936.17
2017-11-29T00:20:15.101Z,936.12
2017-11-29T00:20:43.459Z,936.18
2017-11-29T00:21:11.640Z,936.17
2017-11-29T00:21:39.951Z,936.21
2017-11-29T00:22:08.968Z,936.2
2017-11-29T00:22:37.081Z,936.22
2017-11-29T00:23:05.248Z,936.24
2017-11-29T00:23:33.437Z,936.25
2017-11-29T00:24:01.428Z,936.33
2017-11-29T00:24:29.761Z,936.32
2017-11-29T00:24:57.861Z,936.3
2017-11-29T00:25:26.260Z,936.33
2017-11-29T00:25:54.571Z,936.33
2017-11-29T00:26:22.758Z,936.37
2017-11-29T00:26:50.927Z,936.36
2017-11-29T00:27:18.910Z,936.39
2017-11-29T00:27:46.967Z,936.35
2017-11-29T00:28:15.003Z,936.38
2017-11-29T00:28:43.049Z,936.34
2017-11-29T00:29:11.084Z,936.38
2017-11-29T00:29:39.175Z,936.35
2017-11-29T00:30:07.368Z,936.33
2017-11-29T00:30:35.415Z,936.33
2017-11-29T00:31:03.885Z,936.31
2017-11-29T00:31:32.084Z,936.28
2017-11-29T00:32:00.128Z,936.3
2017-11-29T00:32:28.319Z,936.28
2017-11-29T00:32:56.599Z,936.3
2017-11-29T00:33:24.731Z,936.36
2017-11-29T00:33:52.894Z,936.35
2017-11-29T00:34:21.078Z,936.32
2017-11-29T00:34:49.178Z,936.32
2017-11-29T00:35:17.486Z,936.36
2017-11-29T00:35:45.657Z,936.4
2017-11-29T00:36:13.841Z,936.39
2017-11-29T00:36:41.912Z,936.37
2017-11-29T00:37:09.971Z,936.32
2017-11-29T00:37:37.925Z,936.45
2017-11-29T00:38:05.967Z,936.43
2017-11-29T00:38:34.064Z,936.49
2017-11-29T00:39:02.213Z,936.49
2017-11-29T00:39:30.537Z,936.5
2017-11-29T00:39:58.639Z,936.52
2017-11-29T00:40:26.815Z,936.57
2017-11-29T00:40:54.991Z,936.57
2017-11-29T00:41:23.160Z,936.63
2017-11-29T00:41:51.395Z,936.59
2017-11-29T00:42:19.958Z,936.56
2017-11-29T00:42:48.186Z,936.44
2017-11-29T00:43:16.229Z,936.57
2017-11-29T00:43:44.410Z,936.56
2017-11-29T00:44:12.444Z,936.59
2017-11-29T00:44:40.568Z,936.49
2017-11-29T00:45:08.713Z,936.52
2017-11-29T00:45:36.722Z,936.54
2017-11-29T00:46:05.193Z,936.56
2017-11-29T00:46:33.135Z,936.51
2017-11-29T00:47:01.336Z,936.53
2017-11-29T00:47:29.508Z,936.56
2017-11-29T00:47:57.596Z,936.58
2017-11-29T00:48:25.581Z,936.51
2017-11-29T00:48:53.549Z,936.55
2017-11-29T00:49:21.764Z,936.55
2017-11-29T00:49:49.811Z,936.57
2017-11-29T00:50:17.873Z,936.5
2017-11-29T00:50:45.836Z,936.54
2017-11-29T00:51:13.800Z,936.55
2017-11-29T00:51:41.856Z,936.53
2017-11-29T00:52:10.022Z,936.54
2017-11-29T00:52:38.311Z,936.53
2017-11-29T00:53:06.379Z,936.52
2017-11-29T00:53:34.351Z,936.49
2017-11-29T00:54:02.518Z,936.47
2017-11-29T00:54:30.573Z,936.43
2017-11-29T00:54:58.700Z,936.44
2017-11-29T00:55:26.911Z,936.46
2017-11-29T00:55:54.975Z,936.52
2017-11-29T00:56:23.138Z,936.47
2017-11-29T00:56:51.288Z,936.49
2017-11-29T00:57:19.356Z,936.46
2017-11-29T00:57:47.554Z,936.53
2017-11-29T00:58:15.616Z,936.5
2017-11-29T00:58:43.916Z,936.55
2017-11-29T00:59:12.269Z,936.47
2017-11-29T00:59:40.418Z,936.5
2017-11-29T01:00:08.354Z,936.46
2017-11-29T01:00:36.577Z,936.5
2017-11-29T01:01:04.683Z,936.5
2017-11-29T01:01:33.235Z,936.49
2017-11-29T01:02:01.421Z,936.43
2017-11-29T01:02:29.579Z,936.47
2017-11-29T01:02:57.708Z,936.5
2017-11-29T01:03:25.676Z,936.48
2017-11-29T01:03:53.700Z,936.45
2017-11-29T01:04:21.862Z,936.42
2017-11-29T01:04:50.179Z,936.45
2017-11-29T01:05:18.344Z,936.46
2017-11-29T01:05:46.402Z,936.45
2017-11-29T01:06:14.464Z,936.36
2017-11-29T01:06:42.390Z,936.38
2017-11-29T01:07:10.242Z,936.45
2017-11-29T01:07:38.318Z,936.46
2017-11-29T01:08:06.544Z,936.38
2017-11-29T01:08:34.488Z,936.41
2017-11-29T01:09:02.567Z,936.44
2017-11-29T01:09:30.613Z,936.49
2017-11-29T01:09:58.844Z,936.48
2017-11-29T01:10:27.002Z,936.5
2017-11-29T01:10:55.078Z,936.48
2017-11-29T01:11:23.160Z,936.54
2017-11-29T01:11:51.301Z,936.47
2017-11-29T01:12:19.366Z,936.47
2017-11-29T01:12:47.518Z,936.54
2017-11-29T01:13:15.468Z,936.52
2017-11-29T01:13:43.621Z,936.53
2017-11-29T01:14:11.690Z,936.55
2017-11-29T01:14:39.760Z,936.51
2017-11-29T01:15:07.999Z,936.54
2017-11-29T01:15:36.201Z,936.57
2017-11-29T01:16:04.339Z,936.54
2017-11-29T01:16:32.705Z,936.58
2017-11-29T01:17:00.879Z,936.58
2017-11-29T01:17:29.031Z,936.58
2017-11-29T01:17:57.407Z,936.55
2017-11-29T01:18:25.557Z,936.54
2017-11-29T01:18:53.726Z,936.51
2017-11-29T01:19:21.773Z,936.52
2017-11-29T01:19:50.006Z,936.52
2017-11-29T01:20:18.063Z,936.57
2017-11-29T01:20:46.252Z,936.55
2017-11-29T01:21:14.287Z,936.53
2017-11-29T01:21:42.458Z,936.55
2017-11-29T01:22:10.548Z,936.55
2017-11-29T01:22:38.513Z,936.55
2017-11-29T01:23:06.685Z,936.49
2017-11-29T01:23:34.750Z,936.51
2017-11-29T01:24:02.995Z,936.55
2017-11-29T01:24:31.064Z,936.54
2017-11-29T01:24:59.268Z,936.55
2017-11-29T01:25:27.260Z,936.56
2017-11-29T01:25:55.541Z,936.57
2017-11-29T01:26:23.992Z,936.53
2017-11-29T01:26:52.242Z,936.58
2017-11-29T01:27:20.447Z,936.59
2017-11-29T01:27:48.630Z,936.56
2017-11-29T01:28:17.046Z,936.56
2017-11-29T01:28:45.332Z,936.57
2017-11-29T01:29:13.460Z,936.57
2017-11-29T01:29:41.727Z,936.61
2017-11-29T01:30:09.804Z,936.57
2017-11-29T01:30:37.844Z,936.56
2017-11-29T01:31:06.027Z,936.55
2017-11-29T01:31:34.138Z,936.53
2017-11-29T01:32:02.326Z,936.53
2017-11-29T01:32:30.558Z,936.53
2017-11-29T01:32:58.606Z,936.55
2017-11-29T01:33:26.728Z,936.54
2017-11-29T01:33:55.098Z,936.55
2017-11-29T01:34:23.403Z,936.52
2017-11-29T01:34:51.624Z,936.57
2017-11-29T01:35:19.761Z,936.55
2017-11-29T01:35:47.794Z,936.6
2017-11-29T01:36:16.013Z,936.55
2017-11-29T01:36:43.985Z,936.51
2017-11-29T01:37:12.128Z,936.51
2017-11-29T01:37:40.363Z,936.52
2017-11-29T01:38:08.511Z,936.51
2017-11-29T01:38:36.695Z,936.52
2017-11-29T01:39:04.781Z,936.5
2017-11-29T01:39:33.070Z,936.51
2017-11-29T01:40:01.338Z,936.53
2017-11-29T01:40:29.365Z,936.57
2017-11-29T01:40:57.686Z,936.51
2017-11-29T01:41:25.896Z,936.48
2017-11-29T01:41:54.638Z,936.51
2017-11-29T01:42:22.660Z,936.53
2017-11-29T01:42:50.950Z,936.49
2017-11-29T01:43:19.126Z,936.52
2017-11-29T01:43:47.351Z,936.48
2017-11-29T01:44:15.518Z,936.51
2017-11-29T01:44:43.905Z,936.51
2017-11-29T01:45:12.576Z,936.49
2017-11-29T01:45:40.723Z,936.47
2017-11-29T01:46:08.954Z,936.5
2017-11-29T01:46:37.121Z,936.52
2017-11-29T01:47:05.294Z,936.48
2017-11-29T01:47:33.439Z,936.46
2017-11-29T01:48:01.523Z,936.49
2017-11-29T01:48:29.684Z,936.48
2017-11-29T01:48:57.614Z,936.46
2017-11-29T01:49:26.041Z,936.45
2017-11-29T01:49:54.118Z,936.52
2017-11-29T01:50:22.219Z,936.49
2017-11-29T01:50:50.308Z,936.53
2017-11-29T01:51:18.436Z,936.5
2017-11-29T01:51:47.267Z,936.48
2017-11-29T01:52:16.418Z,936.51
2017-11-29T01:52:44.477Z,936.5
2017-11-29T01:53:12.556Z,936.53
2017-11-29T01:53:40.720Z,936.55
2017-11-29T01:54:09.039Z,936.57
2017-11-29T01:54:37.612Z,936.58
2017-11-29T01:55:06.396Z,936.56
2017-11-29T01:55:34.580Z,936.59
2017-11-29T01:56:03.259Z,936.57
2017-11-29T01:56:31.380Z,936.58
2017-11-29T01:56:59.392Z,936.55
2017-11-29T01:57:28.483Z,936.57
2017-11-29T01:57:56.406Z,936.56
2017-11-29T01:58:24.086Z,936.59
2017-11-29T01:58:52.432Z,936.59
2017-11-29T01:59:20.515Z,936.59
2017-11-29T01:59:48.760Z,936.54
2017-11-29T02:00:16.865Z,936.5
2017-11-29T02:00:44.958Z,936.52
2017-11-29T02:01:13.358Z,936.49
2017-11-29T02:01:41.529Z,936.48
2017-11-29T02:02:09.803Z,936.51
2017-11-29T02:02:37.868Z,936.49
2017-11-29T02:03:06.049Z,936.5
2017-11-29T02:03:34.088Z,936.48
2017-11-29T02:04:02.404Z,936.51
2017-11-29T02:04:30.618Z,936.49
2017-11-29T02:04:58.852Z,936.5
2017-11-29T02:05:27.236Z,936.51
2017-11-29T02:05:55.394Z,936.45
2017-11-29T02:06:23.713Z,936.43
2017-11-29T02:06:51.974Z,936.49
2017-11-29T02:07:20.006Z,936.45
2017-11-29T02:07:48.197Z,936.47
2017-11-29T02:08:16.276Z,936.46
2017-11-29T02:08:44.456Z,936.47
2017-11-29T02:09:12.515Z,936.44
2017-11-29T02:09:40.682Z,936.49
2017-11-29T02:10:08.764Z,936.48
2017-11-29T02:10:36.896Z,936.48
2017-11-29T02:11:05.078Z,936.42
2017-11-29T02:11:33.215Z,936.44
2017-11-29T02:12:01.362Z,936.45
2017-11-29T02:12:29.500Z,936.44
2017-11-29T02:12:57.665Z,936.45
2017-11-29T02:13:26.072Z,936.44
2017-11-29T02:13:54.092Z,936.39
2017-11-29T02:14:22.185Z,936.36
2017-11-29T02:14:50.239Z,936.4
2017-11-29T02:15:18.373Z,936.38
2017-11-29T02:15:46.507Z,936.39
2017-11-29T02:16:14.650Z,936.36
2017-11-29T02:16:42.715Z,936.41
2017-11-29T02:17:11.062Z,936.41
2017-11-29T02:17:39.108Z,936.41
2017-11-29T02:18:07.258Z,936.38
2017-11-29T02:18:35.209Z,936.29
2017-11-29T02:19:03.370Z,936.35
2017-11-29T02:19:31.548Z,936.38
2017-11-29T02:19:59.719Z,936.35
2017-11-29T02:20:27.876Z,936.27
2017-11-29T02:20:56.108Z,936.25
2017-11-29T02:21:24.262Z,936.27
2017-11-29T02:21:52.456Z,936.23
2017-11-29T02:22:20.524Z,936.21
2017-11-29T02:22:48.718Z,936.21
2017-11-29T02:23:16.885Z,936.22
2017-11-29T02:23:44.949Z,936.18
2017-11-29T02:24:12.864Z,936.23
2017-11-29T02:24:41.014Z,936.19
2017-11-29T02:25:09.172Z,936.22
2017-11-29T02:25:37.309Z,936.18
2017-11-29T02:26:05.535Z,936.2
2017-11-29T02:26:33.700Z,936.22
2017-11-29T02:27:02.017Z,936.14
2017-11-29T02:27:30.172Z,936.14
2017-11-29T02:27:58.333Z,936.17
2017-11-29T02:28:26.416Z,936.13
2017-11-29T02:28:54.549Z,936.11
2017-11-29T02:29:22.664Z,936.09
2017-11-29T02:29:50.851Z,936.12
2017-11-29T02:30:18.725Z,936.07
2017-11-29T02:30:46.823Z,936.09
2017-11-29T02:31:15.067Z,936.08
2017-11-29T02:31:43.252Z,936.01
2017-11-29T02:32:11.446Z,936.03
2017-11-29T02:32:39.599Z,936.05
2017-11-29T02:33:07.819Z,936.02
2017-11-29T02:33:35.950Z,936.06
2017-11-29T02:34:04.082Z,936.01
2017-11-29T02:34:32.248Z,936.03
2017-11-29T02:35:01.238Z,936.04
2017-11-29T02:35:29.258Z,936
2017-11-29T02:35:57.334Z,936.01
2017-11-29T02:36:25.622Z,936.01
2017-11-29T02:36:53.531Z,936.05
2017-11-29T02:37:21.620Z,936.01
2017-11-29T02:37:49.791Z,936.06
2017-11-29T02:38:17.950Z,936.06
2017-11-29T02:38:46.182Z,936.04
2017-11-29T02:39:14.322Z,936.05
2017-11-29T02:39:42.449Z,936.03
2017-11-29T02:40:10.857Z,935.98
2017-11-29T02:40:39.034Z,936.02
2017-11-29T02:41:07.175Z,936.04
2017-11-29T02:41:35.262Z,936.04
2017-11-29T02:42:03.737Z,935.98
2017-11-29T02:42:32.012Z,936.01
2017-11-29T02:43:00.180Z,936
2017-11-29T02:43:28.322Z,936
2017-11-29T02:43:56.375Z,935.99
2017-11-29T02:44:24.245Z,936.04
2017-11-29T02:44:52.419Z,936.01
2017-11-29T02:45:20.568Z,935.98
2017-11-29T02:45:48.670Z,935.96
2017-11-29T02:46:16.847Z,935.99
2017-11-29T02:46:44.885Z,935.96
2017-11-29T02:47:12.829Z,935.97
2017-11-29T02:47:41.189Z,935.93
2017-11-29T02:48:09.439Z,935.98
2017-11-29T02:48:37.555Z,935.97
2017-11-29T02:49:05.620Z,936.01
2017-11-29T02:49:33.952Z,935.93
2017-11-29T02:50:02.424Z,935.92
2017-11-29T02:50:30.679Z,935.92
2017-11-29T02:50:58.945Z,935.84
2017-11-29T02:51:27.393Z,935.92
2017-11-29T02:51:55.447Z,935.91
2017-11-29T02:52:23.631Z,935.87
2017-11-29T02:52:51.996Z,935.89
2017-11-29T02:53:20.167Z,935.82
2017-11-29T02:53:48.458Z,935.88
2017-11-29T02:54:16.670Z,935.9
2017-11-29T02:54:44.705Z,935.93
2017-11-29T02:55:12.858Z,935.88
2017-11-29T02:55:40.922Z,935.88
2017-11-29T02:56:08.978Z,935.9
2017-11-29T02:56:37.287Z,935.91
2017-11-29T02:57:05.240Z,935.93
2017-11-29T02:57:33.514Z,935.92
2017-11-29T02:58:01.648Z,935.91
2017-11-29T02:58:29.482Z,935.91
2017-11-29T02:58:57.744Z,935.89
2017-11-29T02:59:25.783Z,935.89
2017-11-29T02:59:54.119Z,935.89
2017-11-29T03:00:22.139Z,935.88
2017-11-29T03:00:50.180Z,935.87
2017-11-29T03:01:18.369Z,935.88
2017-11-29T03:01:46.540Z,935.85
2017-11-29T03:02:14.486Z,935.84
2017-11-29T03:02:42.654Z,935.83
2017-11-29T03:03:10.821Z,935.81
2017-11-29T03:03:39.051Z,935.83
2017-11-29T03:04:07.205Z,935.84
2017-11-29T03:04:35.368Z,935.81
2017-11-29T03:05:03.420Z,935.77
2017-11-29T03:05:31.611Z,935.73
2017-11-29T03:05:59.846Z,935.76
2017-11-29T03:06:28.083Z,935.74
2017-11-29T03:06:56.274Z,935.74
2017-11-29T03:07:24.447Z,935.7
2017-11-29T03:07:52.872Z,935.71
2017-11-29T03:08:21.232Z,935.71
2017-11-29T03:08:49.352Z,935.69
2017-11-29T03:09:17.387Z,935.7
2017-11-29T03:09:45.952Z,935.69
2017-11-29T03:10:13.915Z,935.66
2017-11-29T03:10:41.985Z,935.64
2017-11-29T03:11:10.076Z,935.64
2017-11-29T03:11:39.061Z,935.64
2017-11-29T03:12:07.226Z,935.65
2017-11-29T03:12:35.198Z,935.62
2017-11-29T03:13:03.841Z,935.58
2017-11-29T03:13:32.072Z,935.56
2017-11-29T03:14:00.273Z,935.56
2017-11-29T03:14:28.326Z,935.52
2017-11-29T03:14:56.638Z,935.52
2017-11-29T03:15:24.764Z,935.54
2017-11-29T03:15:52.936Z,935.48
2017-11-29T03:16:20.898Z,935.48
2017-11-29T03:16:49.136Z,935.46
2017-11-29T03:17:17.309Z,935.48
2017-11-29T03:17:45.312Z,935.48
2017-11-29T03:18:13.746Z,935.44
2017-11-29T03:18:41.999Z,935.46
2017-11-29T03:19:10.177Z,935.43
2017-11-29T03:19:38.536Z,935.39
2017-11-29T03:20:06.551Z,935.41
2017-11-29T03:20:34.717Z,935.41
2017-11-29T03:21:02.886Z,935.39
2017-11-29T03:21:31.009Z,935.42
2017-11-29T03:21:59.512Z,935.37
2017-11-29T03:22:27.657Z,935.36
2017-11-29T03:22:55.831Z,935.35
2017-11-29T03:23:23.977Z,935.33
2017-11-29T03:23:52.211Z,935.35
2017-11-29T03:24:20.408Z,935.34
2017-11-29T03:24:48.501Z,935.32
2017-11-29T03:25:16.664Z,935.26
2017-11-29T03:25:44.885Z,935.24
2017-11-29T03:26:12.952Z,935.24
2017-11-29T03:26:41.080Z,935.24
2017-11-29T03:27:09.565Z,935.22
2017-11-29T03:27:37.794Z,935.19
2017-11-29T03:28:05.957Z,935.2
2017-11-29T03:28:34.096Z,935.19
2017-11-29T03:29:02.261Z,935.19
2017-11-29T03:29:30.365Z,935.15
2017-11-29T03:29:59.227Z,935.16
2017-11-29T03:30:27.281Z,935.13
2017-11-29T03:30:55.420Z,935.14
2017-11-29T03:31:23.463Z,935.11
2017-11-29T03:31:51.645Z,935.08
2017-11-29T03:32:19.837Z,935.09
2017-11-29T03:32:47.971Z,935.11
2017-11-29T03:33:15.997Z,935.03
2017-11-29T03:33:44.216Z,935.06
2017-11-29T03:34:12.073Z,935.05
2017-11-29T03:34:40.240Z,935.08
2017-11-29T03:35:08.532Z,935.07
2017-11-29T03:35:36.649Z,935.06
2017-11-29T03:36:04.705Z,935.08
2017-11-29T03:36:32.730Z,935.14
2017-11-29T03:37:00.885Z,935.15
2017-11-29T03:37:29.126Z,935.15
2017-11-29T03:37:57.244Z,935.12
2017-11-29T03:38:25.453Z,935.12
2017-11-29T03:38:53.653Z,935.1
2017-11-29T03:39:21.839Z,935.13
2017-11-29T03:39:49.994Z,935.1
2017-11-29T03:40:18.911Z,935.13
2017-11-29T03:40:46.937Z,935.15
2017-11-29T03:41:15.100Z,935.12
2017-11-29T03:41:43.186Z,935.12
2017-11-29T03:42:11.327Z,935.11
2017-11-29T03:42:39.512Z,935.11
2017-11-29T03:43:07.692Z,935.09
2017-11-29T03:43:35.754Z,935.07
2017-11-29T03:44:03.865Z,935.07
2017-11-29T03:44:32.045Z,935.06
2017-11-29T03:45:00.664Z,935.02
2017-11-29T03:45:28.884Z,934.98
2017-11-29T03:45:57.036Z,935
2017-11-29T03:46:25.236Z,934.98
2017-11-29T03:46:53.294Z,934.99
2017-11-29T03:47:21.395Z,934.91
2017-11-29T03:47:49.550Z,934.93
2017-11-29T03:48:17.555Z,934.9
2017-11-29T03:48:45.948Z,934.9
2017-11-29T03:49:14.165Z,934.9
2017-11-29T03:49:42.190Z,934.9
2017-11-29T03:50:10.413Z,934.91
2017-11-29T03:50:38.536Z,934.85
2017-11-29T03:51:06.717Z,934.94
2017-11-29T03:51:34.886Z,934.95
2017-11-29T03:52:03.047Z,934.92
2017-11-29T03:52:32.643Z,934.95
2017-11-29T03:53:00.740Z,934.91
2017-11-29T03:53:28.876Z,934.9
2017-11-29T03:53:57.133Z,934.93
2017-11-29T03:54:25.220Z,934.91
2017-11-29T03:54:53.380Z,934.93
2017-11-29T03:55:21.506Z,934.89
2017-11-29T03:55:49.611Z,934.92
2017-11-29T03:56:17.756Z,934.92
2017-11-29T03:56:46.035Z,934.89
2017-11-29T03:57:14.186Z,934.9
2017-11-29T03:57:42.306Z,934.92
2017-11-29T03:58:10.558Z,934.87
2017-11-29T03:58:39.162Z,934.87
2017-11-29T03:59:07.224Z,934.89
2017-11-29T03:59:35.366Z,934.87
2017-11-29T04:00:03.421Z,934.87
2017-11-29T04:00:31.566Z,934.85
2017-11-29T04:00:59.742Z,934.85
2017-11-29T04:01:28.002Z,934.83
2017-11-29T04:01:56.097Z,934.81
2017-11-29T04:02:24.378Z,934.8
2017-11-29T04:02:52.489Z,934.82
2017-11-29T04:03:20.664Z,934.79
2017-11-29T04:03:48.870Z,934.72
2017-11-29T04:04:16.956Z,934.77
2017-11-29T04:04:44.993Z,934.7
2017-11-29T04:05:13.182Z,934.68
2017-11-29T04:05:41.216Z,934.67
2017-11-29T04:06:09.209Z,934.7
2017-11-29T04:06:37.383Z,934.69
2017-11-29T04:07:05.435Z,934.59
2017-11-29T04:07:33.466Z,934.66
2017-11-29T04:08:01.735Z,934.68
2017-11-29T04:08:29.816Z,934.64
2017-11-29T04:08:57.996Z,934.64
2017-11-29T04:09:26.159Z,934.68
2017-11-29T04:09:54.321Z,934.67
2017-11-29T04:10:22.505Z,934.67
2017-11-29T04:10:50.675Z,934.62
2017-11-29T04:11:18.832Z,934.64
2017-11-29T04:11:46.997Z,934.65
2017-11-29T04:12:15.089Z,934.67
2017-11-29T04:12:43.107Z,934.68
2017-11-29T04:13:11.290Z,934.62
2017-11-29T04:13:39.461Z,934.64
2017-11-29T04:14:07.763Z,934.6
2017-11-29T04:14:35.813Z,934.59
2017-11-29T04:15:04.004Z,934.57
2017-11-29T04:15:32.028Z,934.59
2017-11-29T04:16:00.180Z,934.59
2017-11-29T04:16:28.199Z,934.59
2017-11-29T04:16:56.414Z,934.56
2017-11-29T04:17:24.527Z,934.54
2017-11-29T04:17:52.715Z,934.53
2017-11-29T04:18:20.958Z,934.48
2017-11-29T04:18:49.262Z,934.52
2017-11-29T04:19:17.653Z,934.46
2017-11-29T04:19:45.650Z,934.46
2017-11-29T04:20:13.709Z,934.43
2017-11-29T04:20:41.626Z,934.42
2017-11-29T04:21:09.685Z,934.43
2017-11-29T04:21:37.883Z,934.4
2017-11-29T04:22:05.952Z,934.4
2017-11-29T04:22:33.933Z,934.39
2017-11-29T04:23:02.159Z,934.42
2017-11-29T04:23:30.302Z,934.43
2017-11-29T04:23:58.601Z,934.41
2017-11-29T04:24:26.649Z,934.4
2017-11-29T04:24:54.751Z,934.44
2017-11-29T04:25:22.705Z,934.42
2017-11-29T04:25:50.982Z,934.42
2017-11-29T04:26:19.158Z,934.39
2017-11-29T04:26:47.292Z,934.41
2017-11-29T04:27:15.437Z,934.42
2017-11-29T04:27:43.598Z,934.43
2017-11-29T04:28:11.774Z,934.37
2017-11-29T04:28:40.462Z,934.41
2017-11-29T04:29:08.575Z,934.36
2017-11-29T04:29:36.714Z,934.36
2017-11-29T04:30:04.788Z,934.37
2017-11-29T04:30:33.001Z,934.35
2017-11-29T04:31:01.095Z,934.39
2017-11-29T04:31:29.142Z,934.35
2017-11-29T04:31:57.109Z,934.37
2017-11-29T04:32:25.195Z,934.39
2017-11-29T04:32:53.254Z,934.37
2017-11-29T04:33:21.389Z,934.37
2017-11-29T04:33:49.547Z,934.37
2017-11-29T04:34:17.778Z,934.36
2017-11-29T04:34:45.999Z,934.34
2017-11-29T04:35:14.141Z,934.35
2017-11-29T04:35:42.170Z,934.36
2017-11-29T04:36:10.107Z,934.36
2017-11-29T04:36:38.022Z,934.35
2017-11-29T04:37:06.226Z,934.36
2017-11-29T04:37:34.282Z,934.34
2017-11-29T04:38:02.444Z,934.33
2017-11-29T04:38:30.625Z,934.32
2017-11-29T04:38:58.771Z,934.32
2017-11-29T04:39:26.942Z,934.29
2017-11-29T04:39:55.098Z,934.32
2017-11-29T04:40:23.405Z,934.34
2017-11-29T04:40:51.579Z,934.29
2017-11-29T04:41:19.710Z,934.34
2017-11-29T04:41:47.887Z,934.35
2017-11-29T04:42:16.026Z,934.33
2017-11-29T04:42:44.130Z,934.34
2017-11-29T04:43:12.250Z,934.32
2017-11-29T04:43:40.366Z,934.36
2017-11-29T04:44:08.390Z,934.34
2017-11-29T04:44:36.464Z,934.33
2017-11-29T04:45:04.503Z,934.38
2017-11-29T04:45:32.689Z,934.36
2017-11-29T04:46:00.919Z,934.32
2017-11-29T04:46:29.084Z,934.34
2017-11-29T04:46:57.123Z,934.35
2017-11-29T04:47:25.241Z,934.33
2017-11-29T04:47:53.450Z,934.32
2017-11-29T04:48:21.623Z,934.32
2017-11-29T04:48:49.786Z,934.31
2017-11-29T04:49:18.144Z,934.28
2017-11-29T04:49:46.281Z,934.31
2017-11-29T04:50:14.352Z,934.31
2017-11-29T04:50:42.418Z,934.31
2017-11-29T04:51:10.638Z,934.33
2017-11-29T04:51:38.691Z,934.35
2017-11-29T04:52:06.761Z,934.37
2017-11-29T04:52:34.616Z,934.35
2017-11-29T04:53:02.700Z,934.36
2017-11-29T04:53:30.719Z,934.37
2017-11-29T04:53:58.813Z,934.36
2017-11-29T04:54:26.812Z,934.3
2017-11-29T04:54:55.085Z,934.33
2017-11-29T04:55:23.284Z,934.35
2017-11-29T04:55:51.479Z,934.33
2017-11-29T04:56:19.639Z,934.31
2017-11-29T04:56:47.733Z,934.36
2017-11-29T04:57:16.133Z,934.37
2017-11-29T04:57:45.103Z,934.32
2017-11-29T04:58:13.452Z,934.37
2017-11-29T04:58:41.497Z,934.28
2017-11-29T04:59:09.426Z,934.32
2017-11-29T04:59:37.590Z,934.26
2017-11-29T05:00:05.792Z,934.33
2017-11-29T05:00:33.950Z,934.27
2017-11-29T05:01:02.015Z,934.24
2017-11-29T05:01:30.473Z,934.26
2017-11-29T05:01:58.646Z,934.21
2017-11-29T05:02:26.881Z,934.24
2017-11-29T05:02:55.053Z,934.22
2017-11-29T05:03:23.232Z,934.22
2017-11-29T05:03:51.322Z,934.15
2017-11-29T05:04:19.540Z,934.22
2017-11-29T05:04:48.433Z,934.19
2017-11-29T05:05:16.439Z,934.13
2017-11-29T05:05:44.636Z,934.13
2017-11-29T05:06:12.661Z,934.13
2017-11-29T05:06:40.611Z,934.15
2017-11-29T05:07:08.925Z,934.14
2017-11-29T05:07:37.064Z,934.12
2017-11-29T05:08:05.278Z,934.1
2017-11-29T05:08:33.289Z,934.06
2017-11-29T05:09:01.452Z,934.06
2017-11-29T05:09:29.711Z,934.11
2017-11-29T05:09:57.797Z,934.07
2017-11-29T05:10:25.853Z,934.1
2017-11-29T05:10:54.015Z,934.07
2017-11-29T05:11:22.428Z,934.09
2017-11-29T05:11:50.584Z,934.06
2017-11-29T05:12:18.532Z,934.01
2017-11-29T05:12:46.676Z,934.08
2017-11-29T05:13:14.802Z,933.98
2017-11-29T05:13:42.932Z,934.01
2017-11-29T05:14:11.171Z,934.02
2017-11-29T05:14:39.344Z,934.06
2017-11-29T05:15:07.539Z,933.99
2017-11-29T05:15:35.715Z,934.03
2017-11-29T05:16:03.861Z,934.03
2017-11-29T05:16:31.807Z,934.03
2017-11-29T05:17:00.031Z,934
2017-11-29T05:17:28.324Z,934.02
2017-11-29T05:17:56.400Z,934.07
2017-11-29T05:18:24.897Z,934.04
2017-11-29T05:18:52.870Z,934.07
2017-11-29T05:19:21.136Z,934.07
2017-11-29T05:19:49.430Z,934.06
2017-11-29T05:20:17.681Z,934.06
2017-11-29T05:20:45.832Z,934.06
2017-11-29T05:21:14.012Z,934.09
2017-11-29T05:21:42.184Z,934.05
2017-11-29T05:22:10.255Z,934.05
2017-11-29T05:22:38.426Z,934.07
2017-11-29T05:23:06.587Z,934.09
2017-11-29T05:23:34.877Z,934.11
2017-11-29T05:24:02.952Z,934.12
2017-11-29T05:24:31.173Z,934.13
2017-11-29T05:24:59.155Z,934.09
2017-11-29T05:25:27.208Z,934.11
2017-11-29T05:25:55.428Z,934.14
2017-11-29T05:26:23.484Z,934.08
2017-11-29T05:26:51.673Z,934.1
2017-11-29T05:27:19.835Z,934.08
2017-11-29T05:27:48.125Z,934.08
2017-11-29T05:28:16.159Z,934.09
2017-11-29T05:28:44.344Z,934.09
2017-11-29T05:29:12.478Z,934.08
2017-11-29T05:29:40.612Z,934.05
2017-11-29T05:30:08.693Z,934.07
2017-11-29T05:30:36.760Z,934.06
2017-11-29T05:31:04.962Z,934.04
2017-11-29T05:31:32.907Z,934.03
2017-11-29T05:32:01.064Z,934.08
2017-11-29T05:32:29.224Z,934.05
2017-11-29T05:32:57.226Z,934.07
2017-11-29T05:33:25.428Z,934.03
2017-11-29T05:33:53.682Z,934.04
2017-11-29T05:34:21.842Z,934.01
2017-11-29T05:34:50.120Z,933.99
2017-11-29T05:35:18.248Z,934.05
2017-11-29T05:35:46.554Z,934.02
2017-11-29T05:36:14.745Z,934
2017-11-29T05:36:42.758Z,933.97
2017-11-29T05:37:10.811Z,933.96
2017-11-29T05:37:38.943Z,934.11
2017-11-29T05:38:07.101Z,934.03
2017-11-29T05:38:35.160Z,934.05
2017-11-29T05:39:03.230Z,934.01
2017-11-29T05:39:31.381Z,934.01
2017-11-29T05:39:59.345Z,933.99
2017-11-29T05:40:27.452Z,934.03
2017-11-29T05:40:55.630Z,934.03
2017-11-29T05:41:23.793Z,934.02
2017-11-29T05:41:51.852Z,934
2017-11-29T05:42:20.016Z,934.04
2017-11-29T05:42:48.113Z,934
2017-11-29T05:43:16.302Z,933.97
2017-11-29T05:43:44.436Z,933.99
2017-11-29T05:44:12.552Z,934.05
2017-11-29T05:44:40.921Z,934
2017-11-29T05:45:09.172Z,933.99
2017-11-29T05:45:37.390Z,934.02
2017-11-29T05:46:05.548Z,933.99
2017-11-29T05:46:33.517Z,934
2017-11-29T05:47:01.703Z,933.99
2017-11-29T05:47:29.741Z,933.99
2017-11-29T05:47:57.895Z,933.96
2017-11-29T05:48:26.408Z,933.98
2017-11-29T05:48:54.352Z,934
2017-11-29T05:49:22.510Z,933.95
2017-11-29T05:49:50.744Z,933.96
2017-11-29T05:50:19.027Z,933.98
2017-11-29T05:50:47.167Z,933.97
2017-11-29T05:51:15.313Z,933.95
2017-11-29T05:51:43.369Z,933.92
2017-11-29T05:52:11.458Z,933.94
2017-11-29T05:52:39.628Z,933.9